sensor_id;sensor_type;location;lat;lon;timestamp;P1;durP1;ratioP1;P2;durP2;ratioP2
25511;SDS011;13414;44.534;18.700;2023-11-21T00:02:23;275.17;;;174.93;;
25511;SDS011;13414;44.534;18.700;2023-11-21T00:04:52;264.35;;;161.48;;
25511;SDS011;13414;44.534;18.700;2023-11-21T00:07:20;226.27;;;147.35;;
25511;SDS011;13414;44.534;18.700;2023-11-21T00:09:48;237.18;;;146.77;;
25511;SDS011;13414;44.534;18.700;2023-11-21T00:12:16;255.95;;;157.82;;
25511;SDS011;13414;44.534;18.700;2023-11-21T00:17:47;206.95;;;131.38;;
25511;SDS011;13414;44.534;18.700;2023-11-21T00:20:15;214.18;;;133.02;;
25511;SDS011;13414;44.534;18.700;2023-11-21T00:22:43;179.43;;;115.30;;
25511;SDS011;13414;44.534;18.700;2023-11-21T00:25:12;201.65;;;128.45;;
25511;SDS011;13414;44.534;18.700;2023-11-21T00:27:42;159.93;;;105.13;;
25511;SDS011;13414;44.534;18.700;2023-11-21T00:30:11;135.38;;;91.00;;
25511;SDS011;13414;44.534;18.700;2023-11-21T00:32:40;138.27;;;88.47;;
25511;SDS011;13414;44.534;18.700;2023-11-21T00:35:11;164.30;;;105.15;;
25511;SDS011;13414;44.534;18.700;2023-11-21T00:37:40;181.13;;;119.57;;
25511;SDS011;13414;44.534;18.700;2023-11-21T00:40:09;204.55;;;130.65;;
25511;SDS011;13414;44.534;18.700;2023-11-21T00:42:44;203.18;;;132.00;;
25511;SDS011;13414;44.534;18.700;2023-11-21T00:45:12;199.23;;;126.38;;
25511;SDS011;13414;44.534;18.700;2023-11-21T00:47:44;174.73;;;109.68;;
25511;SDS011;13414;44.534;18.700;2023-11-21T00:50:14;147.90;;;96.47;;
25511;SDS011;13414;44.534;18.700;2023-11-21T00:52:44;127.68;;;83.95;;
25511;SDS011;13414;44.534;18.700;2023-11-21T00:55:14;116.40;;;75.38;;
25511;SDS011;13414;44.534;18.700;2023-11-21T00:57:44;95.68;;;59.95;;
25511;SDS011;13414;44.534;18.700;2023-11-21T01:00:18;97.93;;;57.00;;
25511;SDS011;13414;44.534;18.700;2023-11-21T01:02:51;97.70;;;56.70;;
25511;SDS011;13414;44.534;18.700;2023-11-21T01:05:23;101.03;;;62.88;;
25511;SDS011;13414;44.534;18.700;2023-11-21T01:07:55;130.10;;;79.13;;
25511;SDS011;13414;44.534;18.700;2023-11-21T01:10:31;125.22;;;77.90;;
25511;SDS011;13414;44.534;18.700;2023-11-21T01:12:59;134.27;;;80.32;;
25511;SDS011;13414;44.534;18.700;2023-11-21T01:15:33;132.65;;;78.70;;
25511;SDS011;13414;44.534;18.700;2023-11-21T01:18:06;139.02;;;83.43;;
25511;SDS011;13414;44.534;18.700;2023-11-21T01:20:36;139.95;;;79.95;;
25511;SDS011;13414;44.534;18.700;2023-11-21T01:23:10;136.50;;;80.07;;
25511;SDS011;13414;44.534;18.700;2023-11-21T01:25:38;123.90;;;73.80;;
25511;SDS011;13414;44.534;18.700;2023-11-21T01:28:06;136.93;;;81.78;;
25511;SDS011;13414;44.534;18.700;2023-11-21T01:30:35;155.45;;;88.50;;
25511;SDS011;13414;44.534;18.700;2023-11-21T01:33:10;140.77;;;81.82;;
25511;SDS011;13414;44.534;18.700;2023-11-21T01:35:42;122.68;;;73.78;;
25511;SDS011;13414;44.534;18.700;2023-11-21T01:38:11;105.55;;;64.05;;
25511;SDS011;13414;44.534;18.700;2023-11-21T01:40:39;95.63;;;59.53;;
25511;SDS011;13414;44.534;18.700;2023-11-21T01:43:08;115.30;;;68.95;;
25511;SDS011;13414;44.534;18.700;2023-11-21T01:45:36;106.50;;;65.65;;
25511;SDS011;13414;44.534;18.700;2023-11-21T01:48:04;108.65;;;66.20;;
25511;SDS011;13414;44.534;18.700;2023-11-21T01:50:33;99.55;;;61.75;;
25511;SDS011;13414;44.534;18.700;2023-11-21T01:53:01;105.18;;;65.07;;
25511;SDS011;13414;44.534;18.700;2023-11-21T01:55:29;86.50;;;55.33;;
25511;SDS011;13414;44.534;18.700;2023-11-21T01:57:57;84.57;;;49.88;;
25511;SDS011;13414;44.534;18.700;2023-11-21T02:00:25;81.78;;;52.75;;
25511;SDS011;13414;44.534;18.700;2023-11-21T02:02:55;73.20;;;50.13;;
25511;SDS011;13414;44.534;18.700;2023-11-21T02:05:25;69.97;;;48.38;;
25511;SDS011;13414;44.534;18.700;2023-11-21T02:07:55;68.50;;;44.47;;
25511;SDS011;13414;44.534;18.700;2023-11-21T02:10:23;65.63;;;44.38;;
25511;SDS011;13414;44.534;18.700;2023-11-21T02:12:51;76.10;;;51.25;;
25511;SDS011;13414;44.534;18.700;2023-11-21T02:15:20;79.43;;;51.70;;
25511;SDS011;13414;44.534;18.700;2023-11-21T02:17:49;74.10;;;49.45;;
25511;SDS011;13414;44.534;18.700;2023-11-21T02:20:19;74.55;;;50.92;;
25511;SDS011;13414;44.534;18.700;2023-11-21T02:22:50;84.57;;;55.30;;
25511;SDS011;13414;44.534;18.700;2023-11-21T02:25:21;78.65;;;51.83;;
25511;SDS011;13414;44.534;18.700;2023-11-21T02:27:49;79.78;;;53.70;;
25511;SDS011;13414;44.534;18.700;2023-11-21T02:30:17;81.18;;;50.45;;
25511;SDS011;13414;44.534;18.700;2023-11-21T02:32:47;69.75;;;43.08;;
25511;SDS011;13414;44.534;18.700;2023-11-21T02:35:15;62.30;;;40.83;;
25511;SDS011;13414;44.534;18.700;2023-11-21T02:37:43;68.55;;;42.08;;
25511;SDS011;13414;44.534;18.700;2023-11-21T02:40:12;62.20;;;38.80;;
25511;SDS011;13414;44.534;18.700;2023-11-21T02:42:43;63.03;;;38.55;;
25511;SDS011;13414;44.534;18.700;2023-11-21T02:45:10;69.38;;;43.58;;
25511;SDS011;13414;44.534;18.700;2023-11-21T02:47:42;69.38;;;41.15;;
25511;SDS011;13414;44.534;18.700;2023-11-21T02:50:09;64.47;;;41.42;;
25511;SDS011;13414;44.534;18.700;2023-11-21T02:52:37;62.05;;;38.75;;
25511;SDS011;13414;44.534;18.700;2023-11-21T02:55:06;63.78;;;39.15;;
25511;SDS011;13414;44.534;18.700;2023-11-21T02:57:36;62.92;;;39.75;;
25511;SDS011;13414;44.534;18.700;2023-11-21T03:00:05;62.80;;;37.63;;
25511;SDS011;13414;44.534;18.700;2023-11-21T03:02:35;67.38;;;41.40;;
25511;SDS011;13414;44.534;18.700;2023-11-21T03:05:05;71.25;;;46.15;;
25511;SDS011;13414;44.534;18.700;2023-11-21T03:07:34;73.18;;;47.17;;
25511;SDS011;13414;44.534;18.700;2023-11-21T03:10:03;72.00;;;46.63;;
25511;SDS011;13414;44.534;18.700;2023-11-21T03:12:31;72.38;;;45.05;;
25511;SDS011;13414;44.534;18.700;2023-11-21T03:15:01;71.95;;;44.72;;
25511;SDS011;13414;44.534;18.700;2023-11-21T03:17:28;71.85;;;42.90;;
25511;SDS011;13414;44.534;18.700;2023-11-21T03:19:56;69.40;;;44.10;;
25511;SDS011;13414;44.534;18.700;2023-11-21T03:22:24;65.72;;;39.78;;
25511;SDS011;13414;44.534;18.700;2023-11-21T03:24:52;65.25;;;39.60;;
25511;SDS011;13414;44.534;18.700;2023-11-21T03:27:21;61.65;;;38.25;;
25511;SDS011;13414;44.534;18.700;2023-11-21T03:29:49;64.70;;;38.50;;
25511;SDS011;13414;44.534;18.700;2023-11-21T03:32:19;61.42;;;38.47;;
25511;SDS011;13414;44.534;18.700;2023-11-21T03:34:53;57.47;;;37.20;;
25511;SDS011;13414;44.534;18.700;2023-11-21T03:37:22;55.88;;;37.40;;
25511;SDS011;13414;44.534;18.700;2023-11-21T03:39:50;54.72;;;35.55;;
25511;SDS011;13414;44.534;18.700;2023-11-21T03:42:17;57.58;;;35.15;;
25511;SDS011;13414;44.534;18.700;2023-11-21T03:44:45;56.30;;;35.17;;
25511;SDS011;13414;44.534;18.700;2023-11-21T03:47:13;56.83;;;36.22;;
25511;SDS011;13414;44.534;18.700;2023-11-21T03:49:42;56.40;;;36.10;;
25511;SDS011;13414;44.534;18.700;2023-11-21T03:52:10;65.50;;;39.30;;
25511;SDS011;13414;44.534;18.700;2023-11-21T03:54:38;58.65;;;36.92;;
25511;SDS011;13414;44.534;18.700;2023-11-21T03:57:07;53.83;;;33.80;;
25511;SDS011;13414;44.534;18.700;2023-11-21T03:59:35;52.72;;;32.08;;
25511;SDS011;13414;44.534;18.700;2023-11-21T04:02:06;53.33;;;33.65;;
25511;SDS011;13414;44.534;18.700;2023-11-21T04:04:34;54.40;;;35.05;;
25511;SDS011;13414;44.534;18.700;2023-11-21T04:07:05;58.50;;;38.35;;
25511;SDS011;13414;44.534;18.700;2023-11-21T04:09:35;60.45;;;41.70;;
25511;SDS011;13414;44.534;18.700;2023-11-21T04:12:07;64.97;;;43.63;;
25511;SDS011;13414;44.534;18.700;2023-11-21T04:14:35;57.83;;;40.38;;
25511;SDS011;13414;44.534;18.700;2023-11-21T04:17:10;55.42;;;37.03;;
25511;SDS011;13414;44.534;18.700;2023-11-21T04:19:38;56.42;;;37.00;;
25511;SDS011;13414;44.534;18.700;2023-11-21T04:22:10;55.08;;;41.17;;
25511;SDS011;13414;44.534;18.700;2023-11-21T04:24:41;69.57;;;49.60;;
25511;SDS011;13414;44.534;18.700;2023-11-21T04:27:09;68.03;;;48.20;;
25511;SDS011;13414;44.534;18.700;2023-11-21T04:29:37;66.95;;;48.10;;
25511;SDS011;13414;44.534;18.700;2023-11-21T04:32:05;68.50;;;49.28;;
25511;SDS011;13414;44.534;18.700;2023-11-21T04:34:33;61.85;;;42.03;;
25511;SDS011;13414;44.534;18.700;2023-11-21T04:37:01;56.55;;;38.83;;
25511;SDS011;13414;44.534;18.700;2023-11-21T04:39:33;53.50;;;36.83;;
25511;SDS011;13414;44.534;18.700;2023-11-21T04:42:02;57.85;;;37.67;;
25511;SDS011;13414;44.534;18.700;2023-11-21T04:44:34;58.55;;;40.85;;
25511;SDS011;13414;44.534;18.700;2023-11-21T04:47:02;65.32;;;44.15;;
25511;SDS011;13414;44.534;18.700;2023-11-21T04:49:30;65.60;;;44.42;;
25511;SDS011;13414;44.534;18.700;2023-11-21T04:51:57;65.22;;;43.90;;
25511;SDS011;13414;44.534;18.700;2023-11-21T04:54:26;70.18;;;47.72;;
25511;SDS011;13414;44.534;18.700;2023-11-21T04:56:56;66.40;;;46.10;;
25511;SDS011;13414;44.534;18.700;2023-11-21T04:59:24;62.05;;;39.47;;
25511;SDS011;13414;44.534;18.700;2023-11-21T05:01:53;57.65;;;36.95;;
25511;SDS011;13414;44.534;18.700;2023-11-21T05:04:21;57.17;;;38.10;;
25511;SDS011;13414;44.534;18.700;2023-11-21T05:06:49;61.20;;;40.88;;
25511;SDS011;13414;44.534;18.700;2023-11-21T05:09:16;62.88;;;41.70;;
25511;SDS011;13414;44.534;18.700;2023-11-21T05:11:44;61.15;;;42.60;;
25511;SDS011;13414;44.534;18.700;2023-11-21T05:14:13;70.32;;;45.67;;
25511;SDS011;13414;44.534;18.700;2023-11-21T05:16:41;63.08;;;42.88;;
25511;SDS011;13414;44.534;18.700;2023-11-21T05:19:09;63.83;;;42.42;;
25511;SDS011;13414;44.534;18.700;2023-11-21T05:21:38;55.05;;;38.38;;
25511;SDS011;13414;44.534;18.700;2023-11-21T05:24:06;62.88;;;42.53;;
25511;SDS011;13414;44.534;18.700;2023-11-21T05:26:34;63.92;;;42.38;;
25511;SDS011;13414;44.534;18.700;2023-11-21T05:29:02;62.50;;;42.67;;
25511;SDS011;13414;44.534;18.700;2023-11-21T05:31:32;59.65;;;41.33;;
25511;SDS011;13414;44.534;18.700;2023-11-21T05:34:00;64.20;;;43.88;;
25511;SDS011;13414;44.534;18.700;2023-11-21T05:36:28;67.03;;;47.30;;
25511;SDS011;13414;44.534;18.700;2023-11-21T05:38:56;72.25;;;48.55;;
25511;SDS011;13414;44.534;18.700;2023-11-21T05:41:23;70.72;;;49.95;;
25511;SDS011;13414;44.534;18.700;2023-11-21T05:43:51;72.60;;;52.65;;
25511;SDS011;13414;44.534;18.700;2023-11-21T05:46:19;77.82;;;52.88;;
25511;SDS011;13414;44.534;18.700;2023-11-21T05:48:48;79.35;;;53.60;;
25511;SDS011;13414;44.534;18.700;2023-11-21T05:51:16;74.18;;;52.25;;
25511;SDS011;13414;44.534;18.700;2023-11-21T05:53:44;73.95;;;49.90;;
25511;SDS011;13414;44.534;18.700;2023-11-21T05:56:12;70.72;;;49.67;;
25511;SDS011;13414;44.534;18.700;2023-11-21T05:58:40;72.85;;;50.78;;
25511;SDS011;13414;44.534;18.700;2023-11-21T06:01:08;73.85;;;52.38;;
25511;SDS011;13414;44.534;18.700;2023-11-21T06:03:38;82.80;;;52.95;;
25511;SDS011;13414;44.534;18.700;2023-11-21T06:06:10;87.18;;;56.40;;
25511;SDS011;13414;44.534;18.700;2023-11-21T06:08:38;78.07;;;50.85;;
25511;SDS011;13414;44.534;18.700;2023-11-21T06:11:06;74.53;;;49.20;;
25511;SDS011;13414;44.534;18.700;2023-11-21T06:13:33;66.43;;;43.03;;
25511;SDS011;13414;44.534;18.700;2023-11-21T06:16:01;70.18;;;45.00;;
25511;SDS011;13414;44.534;18.700;2023-11-21T06:18:31;63.53;;;42.13;;
25511;SDS011;13414;44.534;18.700;2023-11-21T06:20:58;64.82;;;42.67;;
25511;SDS011;13414;44.534;18.700;2023-11-21T06:23:28;72.82;;;47.85;;
25511;SDS011;13414;44.534;18.700;2023-11-21T06:25:55;64.68;;;46.35;;
25511;SDS011;13414;44.534;18.700;2023-11-21T06:28:24;81.00;;;53.38;;
25511;SDS011;13414;44.534;18.700;2023-11-21T06:30:51;107.63;;;73.22;;
25511;SDS011;13414;44.534;18.700;2023-11-21T06:33:19;111.00;;;73.63;;
25511;SDS011;13414;44.534;18.700;2023-11-21T06:35:47;115.13;;;75.20;;
25511;SDS011;13414;44.534;18.700;2023-11-21T06:38:15;115.80;;;75.07;;
25511;SDS011;13414;44.534;18.700;2023-11-21T06:40:44;88.80;;;59.97;;
25511;SDS011;13414;44.534;18.700;2023-11-21T06:43:12;112.95;;;76.13;;
25511;SDS011;13414;44.534;18.700;2023-11-21T06:45:39;108.75;;;76.97;;
25511;SDS011;13414;44.534;18.700;2023-11-21T06:48:07;115.45;;;82.57;;
25511;SDS011;13414;44.534;18.700;2023-11-21T06:50:35;105.07;;;78.78;;
25511;SDS011;13414;44.534;18.700;2023-11-21T06:53:02;104.18;;;71.68;;
25511;SDS011;13414;44.534;18.700;2023-11-21T06:55:32;117.03;;;80.68;;
25511;SDS011;13414;44.534;18.700;2023-11-21T06:58:01;111.80;;;75.03;;
25511;SDS011;13414;44.534;18.700;2023-11-21T07:00:33;91.82;;;61.20;;
25511;SDS011;13414;44.534;18.700;2023-11-21T07:03:03;95.47;;;65.03;;
25511;SDS011;13414;44.534;18.700;2023-11-21T07:05:56;106.38;;;72.80;;
25511;SDS011;13414;44.534;18.700;2023-11-21T07:08:43;108.53;;;74.20;;
25511;SDS011;13414;44.534;18.700;2023-11-21T07:11:31;131.68;;;85.50;;
25511;SDS011;13414;44.534;18.700;2023-11-21T07:18:20;131.00;;;84.32;;
25511;SDS011;13414;44.534;18.700;2023-11-21T07:21:06;123.35;;;80.95;;
25511;SDS011;13414;44.534;18.700;2023-11-21T07:23:48;110.97;;;75.38;;
25511;SDS011;13414;44.534;18.700;2023-11-21T07:26:29;117.57;;;76.20;;
25511;SDS011;13414;44.534;18.700;2023-11-21T07:29:20;114.10;;;70.72;;
25511;SDS011;13414;44.534;18.700;2023-11-21T07:31:51;110.55;;;71.20;;
25511;SDS011;13414;44.534;18.700;2023-11-21T07:34:28;107.27;;;71.33;;
25511;SDS011;13414;44.534;18.700;2023-11-21T07:36:58;103.93;;;70.60;;
25511;SDS011;13414;44.534;18.700;2023-11-21T07:39:40;100.50;;;67.97;;
25511;SDS011;13414;44.534;18.700;2023-11-21T07:42:24;97.47;;;66.72;;
25511;SDS011;13414;44.534;18.700;2023-11-21T07:44:55;95.63;;;61.08;;
25511;SDS011;13414;44.534;18.700;2023-11-21T07:54:14;88.43;;;56.53;;
25511;SDS011;13414;44.534;18.700;2023-11-21T07:56:46;88.35;;;56.90;;
25511;SDS011;13414;44.534;18.700;2023-11-21T07:59:21;114.60;;;69.85;;
25511;SDS011;13414;44.534;18.700;2023-11-21T08:02:05;125.63;;;80.80;;
25511;SDS011;13414;44.534;18.700;2023-11-21T08:05:29;143.50;;;92.35;;
25511;SDS011;13414;44.534;18.700;2023-11-21T08:08:00;140.88;;;93.38;;
25511;SDS011;13414;44.534;18.700;2023-11-21T08:10:29;132.10;;;92.25;;
25511;SDS011;13414;44.534;18.700;2023-11-21T08:12:57;144.15;;;95.07;;
25511;SDS011;13414;44.534;18.700;2023-11-21T08:15:25;142.30;;;94.68;;
25511;SDS011;13414;44.534;18.700;2023-11-21T08:17:53;137.50;;;92.72;;
25511;SDS011;13414;44.534;18.700;2023-11-21T08:20:22;149.40;;;99.95;;
25511;SDS011;13414;44.534;18.700;2023-11-21T08:22:50;152.60;;;100.22;;
25511;SDS011;13414;44.534;18.700;2023-11-21T08:25:18;149.93;;;105.20;;
25511;SDS011;13414;44.534;18.700;2023-11-21T08:27:47;161.15;;;104.13;;
25511;SDS011;13414;44.534;18.700;2023-11-21T08:30:15;154.30;;;106.43;;
25511;SDS011;13414;44.534;18.700;2023-11-21T08:32:47;157.77;;;104.18;;
25511;SDS011;13414;44.534;18.700;2023-11-21T08:35:15;147.35;;;96.93;;
25511;SDS011;13414;44.534;18.700;2023-11-21T08:37:42;146.93;;;100.78;;
25511;SDS011;13414;44.534;18.700;2023-11-21T08:40:11;149.73;;;100.45;;
25511;SDS011;13414;44.534;18.700;2023-11-21T08:42:42;145.77;;;97.18;;
25511;SDS011;13414;44.534;18.700;2023-11-21T08:45:12;140.80;;;99.82;;
25511;SDS011;13414;44.534;18.700;2023-11-21T08:47:40;151.95;;;104.38;;
25511;SDS011;13414;44.534;18.700;2023-11-21T08:50:19;159.85;;;109.00;;
25511;SDS011;13414;44.534;18.700;2023-11-21T08:52:47;154.88;;;106.78;;
25511;SDS011;13414;44.534;18.700;2023-11-21T08:55:18;148.30;;;103.78;;
25511;SDS011;13414;44.534;18.700;2023-11-21T08:57:46;159.55;;;108.47;;
25511;SDS011;13414;44.534;18.700;2023-11-21T09:00:17;158.10;;;109.63;;
25511;SDS011;13414;44.534;18.700;2023-11-21T09:02:46;155.57;;;107.68;;
25511;SDS011;13414;44.534;18.700;2023-11-21T09:05:18;159.50;;;116.40;;
25511;SDS011;13414;44.534;18.700;2023-11-21T09:07:46;167.10;;;116.70;;
25511;SDS011;13414;44.534;18.700;2023-11-21T09:10:14;162.55;;;115.50;;
25511;SDS011;13414;44.534;18.700;2023-11-21T09:12:42;162.82;;;113.60;;
25511;SDS011;13414;44.534;18.700;2023-11-21T09:15:10;152.93;;;106.78;;
25511;SDS011;13414;44.534;18.700;2023-11-21T09:17:41;148.73;;;105.97;;
25511;SDS011;13414;44.534;18.700;2023-11-21T09:20:11;151.30;;;107.32;;
25511;SDS011;13414;44.534;18.700;2023-11-21T09:22:40;145.32;;;105.88;;
25511;SDS011;13414;44.534;18.700;2023-11-21T09:25:10;144.57;;;106.65;;
25511;SDS011;13414;44.534;18.700;2023-11-21T09:27:38;158.00;;;114.10;;
25511;SDS011;13414;44.534;18.700;2023-11-21T09:30:06;156.02;;;119.05;;
25511;SDS011;13414;44.534;18.700;2023-11-21T09:32:36;157.98;;;124.03;;
25511;SDS011;13414;44.534;18.700;2023-11-21T09:35:07;152.35;;;119.65;;
25511;SDS011;13414;44.534;18.700;2023-11-21T09:37:35;161.57;;;127.32;;
25511;SDS011;13414;44.534;18.700;2023-11-21T09:40:03;157.90;;;115.30;;
25511;SDS011;13414;44.534;18.700;2023-11-21T09:42:38;172.25;;;121.38;;
25511;SDS011;13414;44.534;18.700;2023-11-21T09:45:11;141.68;;;102.63;;
25511;SDS011;13414;44.534;18.700;2023-11-21T09:47:43;138.65;;;98.45;;
25511;SDS011;13414;44.534;18.700;2023-11-21T09:50:12;146.65;;;91.85;;
25511;SDS011;13414;44.534;18.700;2023-11-21T09:52:47;142.55;;;95.57;;
25511;SDS011;13414;44.534;18.700;2023-11-21T09:55:22;132.65;;;95.35;;
25511;SDS011;13414;44.534;18.700;2023-11-21T09:57:54;136.88;;;94.88;;
25511;SDS011;13414;44.534;18.700;2023-11-21T10:00:23;138.60;;;99.13;;
25511;SDS011;13414;44.534;18.700;2023-11-21T10:02:53;142.88;;;101.22;;
25511;SDS011;13414;44.534;18.700;2023-11-21T10:05:23;142.77;;;101.68;;
25511;SDS011;13414;44.534;18.700;2023-11-21T10:07:51;148.13;;;108.40;;
25511;SDS011;13414;44.534;18.700;2023-11-21T10:10:21;141.70;;;105.55;;
25511;SDS011;13414;44.534;18.700;2023-11-21T10:12:50;146.43;;;107.32;;
25511;SDS011;13414;44.534;18.700;2023-11-21T10:15:22;166.25;;;118.03;;
25511;SDS011;13414;44.534;18.700;2023-11-21T10:17:54;158.02;;;111.15;;
25511;SDS011;13414;44.534;18.700;2023-11-21T10:20:25;158.38;;;113.97;;
25511;SDS011;13414;44.534;18.700;2023-11-21T10:22:56;181.95;;;127.60;;
25511;SDS011;13414;44.534;18.700;2023-11-21T10:25:46;170.70;;;121.55;;
25511;SDS011;13414;44.534;18.700;2023-11-21T10:28:19;174.40;;;122.45;;
25511;SDS011;13414;44.534;18.700;2023-11-21T10:33:39;154.02;;;112.68;;
25511;SDS011;13414;44.534;18.700;2023-11-21T10:36:11;157.20;;;113.35;;
25511;SDS011;13414;44.534;18.700;2023-11-21T10:42:24;156.88;;;116.07;;
25511;SDS011;13414;44.534;18.700;2023-11-21T10:45:29;155.77;;;114.53;;
25511;SDS011;13414;44.534;18.700;2023-11-21T10:49:44;170.07;;;126.28;;
25511;SDS011;13414;44.534;18.700;2023-11-21T10:55:26;161.20;;;120.38;;
25511;SDS011;13414;44.534;18.700;2023-11-21T10:57:58;151.90;;;112.03;;
25511;SDS011;13414;44.534;18.700;2023-11-21T11:04:00;144.35;;;103.05;;
25511;SDS011;13414;44.534;18.700;2023-11-21T11:06:34;129.70;;;88.90;;
25511;SDS011;13414;44.534;18.700;2023-11-21T11:09:05;93.93;;;67.88;;
25511;SDS011;13414;44.534;18.700;2023-11-21T11:11:34;86.88;;;65.15;;
25511;SDS011;13414;44.534;18.700;2023-11-21T11:14:04;76.68;;;58.58;;
25511;SDS011;13414;44.534;18.700;2023-11-21T11:16:32;80.70;;;60.10;;
25511;SDS011;13414;44.534;18.700;2023-11-21T11:19:00;74.20;;;56.20;;
25511;SDS011;13414;44.534;18.700;2023-11-21T11:21:32;71.50;;;55.17;;
25511;SDS011;13414;44.534;18.700;2023-11-21T11:27:20;81.55;;;60.22;;
25511;SDS011;13414;44.534;18.700;2023-11-21T11:30:02;89.63;;;57.50;;
25511;SDS011;13414;44.534;18.700;2023-11-21T11:33:02;69.75;;;54.75;;
25511;SDS011;13414;44.534;18.700;2023-11-21T11:35:52;76.95;;;57.28;;
25511;SDS011;13414;44.534;18.700;2023-11-21T11:38:27;64.93;;;51.83;;
25511;SDS011;13414;44.534;18.700;2023-11-21T11:41:01;66.18;;;48.75;;
25511;SDS011;13414;44.534;18.700;2023-11-21T11:43:29;66.07;;;50.17;;
25511;SDS011;13414;44.534;18.700;2023-11-21T11:45:58;69.38;;;51.72;;
25511;SDS011;13414;44.534;18.700;2023-11-21T11:48:28;68.50;;;52.30;;
25511;SDS011;13414;44.534;18.700;2023-11-21T11:51:03;66.40;;;49.95;;
25511;SDS011;13414;44.534;18.700;2023-11-21T11:53:38;57.60;;;44.53;;
25511;SDS011;13414;44.534;18.700;2023-11-21T11:58:52;64.82;;;47.08;;
25511;SDS011;13414;44.534;18.700;2023-11-21T12:01:21;67.43;;;51.20;;
25511;SDS011;13414;44.534;18.700;2023-11-21T12:06:56;56.28;;;47.13;;
25511;SDS011;13414;44.534;18.700;2023-11-21T12:09:28;61.17;;;46.38;;
25511;SDS011;13414;44.534;18.700;2023-11-21T12:11:59;68.15;;;52.42;;
25511;SDS011;13414;44.534;18.700;2023-11-21T12:14:28;70.80;;;51.20;;
25511;SDS011;13414;44.534;18.700;2023-11-21T12:16:58;63.05;;;47.20;;
25511;SDS011;13414;44.534;18.700;2023-11-21T12:19:28;71.35;;;49.17;;
25511;SDS011;13414;44.534;18.700;2023-11-21T12:21:55;70.72;;;50.72;;
25511;SDS011;13414;44.534;18.700;2023-11-21T12:24:23;75.18;;;49.15;;
25511;SDS011;13414;44.534;18.700;2023-11-21T12:26:51;64.93;;;49.28;;
25511;SDS011;13414;44.534;18.700;2023-11-21T12:29:20;63.28;;;45.97;;
25511;SDS011;13414;44.534;18.700;2023-11-21T12:31:48;70.45;;;50.97;;
25511;SDS011;13414;44.534;18.700;2023-11-21T12:34:16;70.00;;;51.75;;
25511;SDS011;13414;44.534;18.700;2023-11-21T12:36:44;61.53;;;43.53;;
25511;SDS011;13414;44.534;18.700;2023-11-21T12:39:12;56.95;;;42.53;;
25511;SDS011;13414;44.534;18.700;2023-11-21T12:41:40;54.72;;;41.20;;
25511;SDS011;13414;44.534;18.700;2023-11-21T12:44:09;83.57;;;63.25;;
25511;SDS011;13414;44.534;18.700;2023-11-21T12:46:42;54.67;;;40.33;;
25511;SDS011;13414;44.534;18.700;2023-11-21T12:49:12;54.28;;;39.13;;
25511;SDS011;13414;44.534;18.700;2023-11-21T12:51:43;52.30;;;38.67;;
25511;SDS011;13414;44.534;18.700;2023-11-21T12:54:12;47.60;;;36.97;;
25511;SDS011;13414;44.534;18.700;2023-11-21T12:56:41;86.70;;;62.30;;
25511;SDS011;13414;44.534;18.700;2023-11-21T12:59:12;55.38;;;39.80;;
25511;SDS011;13414;44.534;18.700;2023-11-21T13:01:43;49.50;;;38.80;;
25511;SDS011;13414;44.534;18.700;2023-11-21T13:04:11;50.55;;;39.30;;
25511;SDS011;13414;44.534;18.700;2023-11-21T13:06:39;50.28;;;38.78;;
25511;SDS011;13414;44.534;18.700;2023-11-21T13:09:07;53.70;;;40.22;;
25511;SDS011;13414;44.534;18.700;2023-11-21T13:11:36;51.00;;;39.35;;
25511;SDS011;13414;44.534;18.700;2023-11-21T13:14:06;55.50;;;40.15;;
25511;SDS011;13414;44.534;18.700;2023-11-21T13:16:35;49.03;;;38.60;;
25511;SDS011;13414;44.534;18.700;2023-11-21T13:19:06;51.17;;;38.60;;
25511;SDS011;13414;44.534;18.700;2023-11-21T13:21:34;51.25;;;37.45;;
25511;SDS011;13414;44.534;18.700;2023-11-21T13:24:01;51.30;;;37.25;;
25511;SDS011;13414;44.534;18.700;2023-11-21T13:26:29;48.88;;;36.85;;
25511;SDS011;13414;44.534;18.700;2023-11-21T13:28:58;45.45;;;34.03;;
25511;SDS011;13414;44.534;18.700;2023-11-21T13:31:25;42.80;;;31.65;;
25511;SDS011;13414;44.534;18.700;2023-11-21T13:33:56;36.03;;;27.23;;
25511;SDS011;13414;44.534;18.700;2023-11-21T13:36:31;30.10;;;24.38;;
25511;SDS011;13414;44.534;18.700;2023-11-21T13:39:00;33.85;;;25.90;;
25511;SDS011;13414;44.534;18.700;2023-11-21T13:41:32;35.95;;;27.40;;
25511;SDS011;13414;44.534;18.700;2023-11-21T13:44:00;38.42;;;27.70;;
25511;SDS011;13414;44.534;18.700;2023-11-21T13:46:41;40.80;;;27.10;;
25511;SDS011;13414;44.534;18.700;2023-11-21T13:49:09;35.20;;;28.00;;
25511;SDS011;13414;44.534;18.700;2023-11-21T13:51:38;36.45;;;28.25;;
25511;SDS011;13414;44.534;18.700;2023-11-21T13:54:09;38.92;;;31.40;;
25511;SDS011;13414;44.534;18.700;2023-11-21T13:56:37;34.90;;;30.10;;
25511;SDS011;13414;44.534;18.700;2023-11-21T13:59:06;37.78;;;31.13;;
25511;SDS011;13414;44.534;18.700;2023-11-21T14:01:45;41.13;;;33.67;;
25511;SDS011;13414;44.534;18.700;2023-11-21T14:04:27;46.70;;;36.45;;
25511;SDS011;13414;44.534;18.700;2023-11-21T14:07:25;50.03;;;37.63;;
25511;SDS011;13414;44.534;18.700;2023-11-21T14:09:58;48.08;;;35.50;;
25511;SDS011;13414;44.534;18.700;2023-11-21T14:12:29;43.90;;;32.63;;
25511;SDS011;13414;44.534;18.700;2023-11-21T14:15:01;45.10;;;34.47;;
25511;SDS011;13414;44.534;18.700;2023-11-21T14:17:58;47.13;;;34.97;;
25511;SDS011;13414;44.534;18.700;2023-11-21T14:20:28;42.55;;;32.45;;
25511;SDS011;13414;44.534;18.700;2023-11-21T14:22:57;45.33;;;33.67;;
25511;SDS011;13414;44.534;18.700;2023-11-21T14:25:25;49.75;;;37.20;;
25511;SDS011;13414;44.534;18.700;2023-11-21T14:27:52;51.00;;;37.05;;
25511;SDS011;13414;44.534;18.700;2023-11-21T14:30:20;61.45;;;41.33;;
25511;SDS011;13414;44.534;18.700;2023-11-21T14:32:51;60.53;;;43.20;;
25511;SDS011;13414;44.534;18.700;2023-11-21T14:35:19;54.78;;;38.65;;
25511;SDS011;13414;44.534;18.700;2023-11-21T14:37:47;51.80;;;38.55;;
25511;SDS011;13414;44.534;18.700;2023-11-21T14:40:16;50.80;;;38.97;;
25511;SDS011;13414;44.534;18.700;2023-11-21T14:42:47;60.85;;;42.60;;
25511;SDS011;13414;44.534;18.700;2023-11-21T14:45:18;66.00;;;46.97;;
25511;SDS011;13414;44.534;18.700;2023-11-21T14:47:46;56.75;;;41.17;;
25511;SDS011;13414;44.534;18.700;2023-11-21T14:50:22;56.88;;;41.08;;
25511;SDS011;13414;44.534;18.700;2023-11-21T14:53:06;59.97;;;42.53;;
25511;SDS011;13414;44.534;18.700;2023-11-21T14:55:36;54.85;;;40.17;;
25511;SDS011;13414;44.534;18.700;2023-11-21T14:58:18;54.08;;;39.67;;
25511;SDS011;13414;44.534;18.700;2023-11-21T15:00:52;49.72;;;37.85;;